Time;durP1;ratioP1;P1;durP2;ratioP2;P2;SDS_P1;SDS_P2;PMS_P1;PMS_P2;Temp;Humidity;BMP_temperature;BMP_pressure;BME280_temperature;BME280_humidity;BME280_pressure;Samples;Min_cycle;Max_cycle;Signal;HPM_P1;HPM_P2
2022/03/21 00:01:21;;;;;;;9.45;4.25;;;7.00;81.30;;;;;;6334456;22;20025;-89
2022/03/21 00:03:57;;;;;;;9.27;4.35;;;6.90;81.80;;;;;;6333441;22;19999;-89
2022/03/21 00:07:01;;;;;;;11.27;4.60;;;6.90;81.90;;;;;;6334011;22;20006;-89
2022/03/21 00:09:30;;;;;;;8.93;4.25;;;6.90;81.80;;;;;;6327593;22;19998;-89
2022/03/21 00:12:14;;;;;;;9.02;4.65;;;6.80;82.50;;;;;;6334228;22;19998;-89
2022/03/21 00:14:52;;;;;;;8.85;3.75;;;6.80;82.60;;;;;;6360695;22;19995;-89
2022/03/21 00:17:28;;;;;;;10.55;4.57;;;6.80;82.20;;;;;;6331959;22;20009;-89
2022/03/21 00:20:01;;;;;;;12.15;4.15;;;6.70;82.50;;;;;;6332230;22;20002;-90
2022/03/21 00:22:34;;;;;;;9.73;4.20;;;6.80;82.50;;;;;;6360062;22;20036;-89
2022/03/21 00:25:33;;;;;;;;;;;;;;;;;;;;;
2022/03/21 00:28:26;;;;;;;10.98;4.38;;;6.70;80.50;;;;;;6338582;22;20002;-89
2022/03/21 00:30:59;;;;;;;6.90;3.35;;;6.60;81.20;;;;;;6329262;22;20006;-90
2022/03/21 00:33:28;;;;;;;8.85;4.32;;;6.50;81.20;;;;;;6330142;22;20033;-89
2022/03/21 00:36:08;;;;;;;8.85;4.00;;;6.60;83.40;;;;;;6331243;22;19998;-89
2022/03/21 00:38:37;;;;;;;8.60;3.90;;;6.50;82.60;;;;;;6327631;22;20006;-88
2022/03/21 00:44:15;;;;;;;8.75;3.47;;;6.40;80.50;;;;;;6291106;22;20002;-89
2022/03/21 00:46:46;;;;;;;8.77;4.25;;;6.40;83.00;;;;;;6327474;22;20079;-90
2022/03/21 00:49:30;;;;;;;10.80;4.72;;;6.40;83.10;;;;;;6327197;22;20032;-89
2022/03/21 00:52:13;;;;;;;8.00;4.53;;;6.40;82.90;;;;;;6350233;22;19995;-90
2022/03/21 00:55:01;;;;;;;8.98;4.03;;;6.40;82.40;;;;;;6321316;22;20003;-89
2022/03/21 00:57:51;;;;;;;8.67;4.10;;;6.30;82.70;;;;;;6327662;22;20003;-90
2022/03/21 01:00:24;;;;;;;7.93;4.03;;;6.30;83.20;;;;;;6358709;22;20017;-90
2022/03/21 01:03:01;;;;;;;9.38;4.22;;;6.30;82.70;;;;;;6332195;22;20020;-88
2022/03/21 01:05:41;;;;;;;9.07;3.88;;;6.20;82.90;;;;;;6331831;22;20019;-89
2022/03/21 01:08:13;;;;;;;10.75;4.18;;;6.20;83.90;;;;;;6362110;22;19991;-88
2022/03/21 01:10:50;;;;;;;9.25;4.55;;;6.20;84.10;;;;;;6335254;22;20024;-90
2022/03/21 01:13:41;;;;;;;;;;;;;;;;;;;;;
2022/03/21 01:16:10;;;;;;;10.43;4.70;;;6.20;85.50;;;;;;6362029;22;20009;-89
2022/03/21 01:18:51;;;;;;;10.40;4.60;;;6.20;86.20;;;;;;6362420;22;19998;-88
2022/03/21 01:21:22;;;;;;;9.98;4.50;;;6.20;86.70;;;;;;6335394;22;20003;-89
2022/03/21 01:23:56;;;;;;;8.25;3.55;;;6.10;86.90;;;;;;6335080;22;20018;-88
2022/03/21 01:26:35;;;;;;;8.88;4.03;;;6.20;87.00;;;;;;6335077;22;20001;-87
2022/03/21 01:29:04;;;;;;;9.70;3.83;;;6.10;86.90;;;;;;6330476;22;20028;-87
2022/03/21 01:31:33;;;;;;;9.27;4.13;;;6.10;87.40;;;;;;6335123;22;20003;-89
2022/03/21 01:34:08;;;;;;;9.23;3.95;;;6.00;87.30;;;;;;6334154;22;20015;-89
2022/03/21 01:36:42;;;;;;;8.13;3.97;;;6.00;87.10;;;;;;6333074;22;20002;-87
2022/03/21 01:39:28;;;;;;;8.50;3.90;;;6.00;86.50;;;;;;6330124;22;19999;-89
2022/03/21 01:42:04;;;;;;;11.10;4.78;;;6.00;85.60;;;;;;6331517;22;20014;-86
2022/03/21 01:44:35;;;;;;;9.23;4.13;;;5.90;86.80;;;;;;6332659;22;20066;-89
2022/03/21 01:47:16;;;;;;;10.10;4.10;;;5.90;86.80;;;;;;6333176;22;20021;-88
2022/03/21 01:49:57;;;;;;;9.50;4.30;;;5.90;86.30;;;;;;6360959;22;20006;-89
2022/03/21 01:52:41;;;;;;;8.48;3.83;;;5.90;86.20;;;;;;6333481;22;20060;-90
2022/03/21 01:58:22;;;;;;;9.20;3.97;;;5.80;85.60;;;;;;6359179;22;20014;-90
2022/03/21 02:00:56;;;;;;;8.52;4.30;;;5.80;85.40;;;;;;6352130;22;20207;-91
2022/03/21 02:03:30;;;;;;;8.45;4.28;;;5.80;85.30;;;;;;6329018;22;20005;-90
2022/03/21 02:06:02;;;;;;;9.40;3.93;;;5.80;85.30;;;;;;6356793;22;20016;-89
2022/03/21 02:08:29;;;;;;;10.15;4.50;;;5.70;85.30;;;;;;6328165;22;20026;-90
2022/03/21 02:10:59;;;;;;;8.83;3.90;;;5.70;85.00;;;;;;6325406;22;20067;-90
2022/03/21 02:13:34;;;;;;;8.80;4.20;;;5.60;85.30;;;;;;6322225;22;19999;-90
2022/03/21 02:16:08;;;;;;;8.50;4.47;;;5.60;85.70;;;;;;6319165;22;19998;-89
2022/03/21 02:18:38;;;;;;;9.27;4.43;;;5.50;86.20;;;;;;6320175;22;20056;-90
2022/03/21 02:21:10;;;;;;;9.33;4.20;;;5.50;87.20;;;;;;6319507;22;20090;-88
2022/03/21 02:24:07;;;;;;;8.75;3.97;;;5.50;87.80;;;;;;6324157;22;20014;-90
2022/03/21 02:27:01;;;;;;;9.13;4.00;;;5.50;88.20;;;;;;6326769;22;20010;-90
2022/03/21 02:29:42;;;;;;;11.50;4.60;;;5.50;88.40;;;;;;6317202;22;20013;-89
2022/03/21 02:32:32;;;;;;;10.80;4.23;;;5.50;88.80;;;;;;6326896;22;20003;-90
2022/03/21 02:35:09;;;;;;;7.03;3.57;;;5.50;89.20;;;;;;6328128;22;19998;-89
2022/03/21 02:37:46;;;;;;;7.10;3.53;;;5.50;90.00;;;;;;6328570;22;20002;-89
2022/03/21 02:40:13;;;;;;;9.33;4.53;;;5.60;90.30;;;;;;6325575;22;19999;-90
2022/03/21 02:42:50;;;;;;;10.40;4.90;;;5.60;89.90;;;;;;6327758;22;20018;-89
2022/03/21 02:45:26;;;;;;;8.80;4.23;;;5.60;89.80;;;;;;6323706;22;20017;-90
2022/03/21 02:48:01;;;;;;;9.47;3.40;;;5.60;89.90;;;;;;6326449;22;20006;-89
2022/03/21 02:50:55;;;;;;;9.80;4.87;;;5.70;90.00;;;;;;6327403;22;20009;-90
2022/03/21 02:53:34;;;;;;;8.20;4.03;;;5.70;88.50;;;;;;6322035;22;20086;-89
2022/03/21 02:55:59;;;;;;;7.30;3.47;;;5.60;87.50;;;;;;6307887;22;20113;-88
2022/03/21 02:58:26;;;;;;;8.90;3.50;;;5.70;88.40;;;;;;6308874;22;20023;-87
2022/03/21 03:00:52;;;;;;;7.03;3.60;;;5.70;88.20;;;;;;6309214;22;20438;-88
2022/03/21 03:03:17;;;;;;;7.97;3.63;;;5.70;87.80;;;;;;6308168;22;20018;-88
2022/03/21 03:05:43;;;;;;;8.73;3.83;;;5.70;87.40;;;;;;6296126;22;20006;-86
2022/03/21 03:08:09;;;;;;;8.47;3.60;;;5.60;87.60;;;;;;6278009;22;20014;-88
2022/03/21 03:10:35;;;;;;;8.20;3.50;;;5.70;88.10;;;;;;6277809;22;20053;-87
2022/03/21 03:13:00;;;;;;;8.68;4.00;;;5.60;88.20;;;;;;6278127;22;19995;-87
2022/03/21 03:15:26;;;;;;;8.73;4.23;;;5.60;87.60;;;;;;6277642;22;20003;-88
2022/03/21 03:17:52;;;;;;;7.87;3.63;;;5.60;87.90;;;;;;6278203;22;20003;-88
2022/03/21 03:20:18;;;;;;;8.13;3.63;;;5.60;87.70;;;;;;6278146;22;20045;-87
2022/03/21 03:22:44;;;;;;;6.83;3.40;;;5.50;87.90;;;;;;6305285;22;20036;-87
2022/03/21 03:25:11;;;;;;;7.43;3.87;;;5.60;87.70;;;;;;6277547;22;20011;-87
2022/03/21 03:27:37;;;;;;;8.27;2.97;;;5.50;88.20;;;;;;6276829;22;20272;-88
2022/03/21 03:30:06;;;;;;;9.37;4.20;;;5.50;88.50;;;;;;6277737;22;20007;-87
2022/03/21 03:32:32;;;;;;;7.40;3.60;;;5.50;89.40;;;;;;6277268;22;20000;-87
2022/03/21 03:34:58;;;;;;;13.77;4.17;;;5.40;88.80;;;;;;6304666;22;20002;-88
2022/03/21 03:37:24;;;;;;;9.43;4.60;;;5.50;89.30;;;;;;6277910;22;20272;-86
2022/03/21 03:39:49;;;;;;;8.47;3.67;;;5.40;89.10;;;;;;6273282;22;20007;-88
2022/03/21 03:42:15;;;;;;;10.47;4.30;;;5.40;89.40;;;;;;6278070;22;20010;-88
2022/03/21 03:44:40;;;;;;;8.50;4.20;;;5.30;89.60;;;;;;6277515;22;20449;-87
2022/03/21 03:47:06;;;;;;;7.90;3.30;;;5.30;89.60;;;;;;6277200;22;20022;-87
2022/03/21 03:49:32;;;;;;;6.80;3.80;;;5.30;90.20;;;;;;6305124;22;19999;-88
2022/03/21 03:51:58;;;;;;;7.73;3.53;;;5.30;89.90;;;;;;6277577;22;20030;-88
2022/03/21 03:54:23;;;;;;;9.10;3.47;;;5.20;90.10;;;;;;6277093;22;20003;-87
2022/03/21 03:56:49;;;;;;;7.63;3.60;;;5.20;88.70;;;;;;6276853;22;20433;-88
2022/03/21 03:59:14;;;;;;;9.33;3.93;;;5.20;88.60;;;;;;6305076;22;20079;-87
2022/03/21 04:01:40;;;;;;;7.70;3.33;;;5.20;89.20;;;;;;6277643;22;20014;-88
2022/03/21 04:04:06;;;;;;;7.27;3.57;;;5.20;88.70;;;;;;6276273;22;20102;-87
2022/03/21 04:06:31;;;;;;;7.63;3.73;;;5.10;89.30;;;;;;6276847;22;20008;-88
2022/03/21 04:08:58;;;;;;;5.47;2.90;;;5.10;89.40;;;;;;6276882;22;20007;-87
2022/03/21 04:11:24;;;;;;;9.77;3.83;;;5.10;89.40;;;;;;6277368;22;20007;-87
2022/03/21 04:13:50;;;;;;;9.67;3.67;;;5.10;89.50;;;;;;6303439;22;20031;-88
2022/03/21 04:16:16;;;;;;;7.00;3.63;;;5.00;88.70;;;;;;6304941;22;20078;-88
2022/03/21 04:18:42;;;;;;;8.87;3.87;;;5.10;88.30;;;;;;6276921;22;20003;-87
2022/03/21 04:21:08;;;;;;;8.63;3.50;;;5.00;86.80;;;;;;6304340;22;20023;-87
2022/03/21 04:23:34;;;;;;;6.87;3.40;;;5.00;87.90;;;;;;6303841;22;20009;-88
2022/03/21 04:26:00;;;;;;;8.27;3.63;;;4.90;89.10;;;;;;6277073;22;20493;-87
2022/03/21 04:28:26;;;;;;;9.57;3.73;;;5.00;88.10;;;;;;6276877;22;20045;-87
2022/03/21 04:30:51;;;;;;;9.00;4.30;;;4.90;88.60;;;;;;6303934;22;20052;-87
2022/03/21 04:33:17;;;;;;;8.23;3.80;;;4.80;89.10;;;;;;6276325;22;19995;-87
2022/03/21 04:35:43;;;;;;;6.90;3.37;;;4.80;88.40;;;;;;6276471;22;20079;-87
2022/03/21 04:38:14;;;;;;;8.63;3.97;;;4.70;87.00;;;;;;6271052;22;20015;-88
2022/03/21 04:40:44;;;;;;;8.77;4.00;;;4.60;87.50;;;;;;6275845;22;20399;-87
2022/03/21 04:43:11;;;;;;;9.53;3.70;;;4.60;88.00;;;;;;6275938;22;20010;-87
2022/03/21 04:45:37;;;;;;;9.27;3.93;;;4.60;88.80;;;;;;6277154;22;20101;-87
2022/03/21 04:48:04;;;;;;;10.90;4.27;;;4.50;87.70;;;;;;6276282;22;20010;-87
2022/03/21 04:50:30;;;;;;;10.27;3.90;;;4.40;88.20;;;;;;6277224;22;20027;-88
2022/03/21 04:52:56;;;;;;;9.23;4.03;;;4.40;89.60;;;;;;6285770;22;20027;-87
2022/03/21 04:55:22;;;;;;;10.37;3.67;;;4.30;90.10;;;;;;6282735;22;20015;-87
2022/03/21 04:57:48;;;;;;;8.50;3.83;;;4.30;89.30;;;;;;6279881;22;20151;-86
2022/03/21 05:00:14;;;;;;;7.97;3.93;;;4.30;90.30;;;;;;6304737;22;19999;-88
2022/03/21 05:02:40;;;;;;;10.40;3.80;;;4.30;90.80;;;;;;6304267;22;20006;-87
2022/03/21 05:05:08;;;;;;;7.10;3.67;;;4.30;90.80;;;;;;6276058;22;20052;-87
2022/03/21 05:07:39;;;;;;;9.00;4.10;;;4.30;90.20;;;;;;6279897;22;20052;-87
2022/03/21 05:10:05;;;;;;;8.30;3.63;;;4.20;89.70;;;;;;6279944;22;20026;-87
2022/03/21 05:12:31;;;;;;;8.63;3.90;;;4.30;90.60;;;;;;6280111;22;20003;-87
2022/03/21 05:14:56;;;;;;;9.43;4.10;;;4.20;90.40;;;;;;6279706;22;20080;-87
2022/03/21 05:17:22;;;;;;;8.53;3.90;;;4.20;91.10;;;;;;6305518;22;20026;-87
2022/03/21 05:19:47;;;;;;;8.73;3.63;;;4.20;91.50;;;;;;6280329;22;20454;-87
2022/03/21 05:22:13;;;;;;;9.87;4.37;;;4.20;90.30;;;;;;6308101;22;20003;-87
2022/03/21 05:35:57;;;;;;;10.00;4.17;;;4.10;91.70;;;;;;6307773;22;20010;-87
2022/03/21 05:38:28;;;;;;;9.50;4.67;;;4.10;92.00;;;;;;6277437;22;20031;-87
2022/03/21 05:41:03;;;;;;;9.83;4.13;;;4.20;91.80;;;;;;6281547;22;20014;-87
2022/03/21 05:43:30;;;;;;;9.10;4.37;;;4.20;91.70;;;;;;6277957;22;20007;-87
2022/03/21 05:45:56;;;;;;;7.17;3.80;;;4.30;91.40;;;;;;6272521;22;20464;-86
2022/03/21 05:51:07;;;;;;;10.27;4.47;;;4.30;91.30;;;;;;6303627;22;20080;-86
2022/03/21 05:53:33;;;;;;;11.43;4.17;;;4.20;91.10;;;;;;6275694;22;20136;-87
2022/03/21 05:56:00;;;;;;;8.40;3.93;;;4.20;91.40;;;;;;6303299;22;20117;-86
2022/03/21 05:58:29;;;;;;;7.97;3.77;;;4.20;90.80;;;;;;6276622;22;20007;-87
2022/03/21 06:00:55;;;;;;;7.50;3.47;;;4.20;91.40;;;;;;6305275;22;20011;-87
2022/03/21 06:03:22;;;;;;;10.00;4.37;;;4.20;91.80;;;;;;6304545;22;20007;-87
2022/03/21 06:05:47;;;;;;;9.13;3.63;;;4.30;91.20;;;;;;6277304;22;20018;-87
2022/03/21 06:08:13;;;;;;;8.63;4.10;;;4.20;91.20;;;;;;6278220;22;20011;-87
2022/03/21 06:10:39;;;;;;;10.60;4.33;;;4.30;91.20;;;;;;6278888;22;20433;-87
2022/03/21 06:13:08;;;;;;;6.40;3.60;;;4.30;91.40;;;;;;6277016;22;19999;-87
2022/03/21 06:15:35;;;;;;;10.43;4.00;;;4.30;91.50;;;;;;6276208;22;20333;-88
2022/03/21 06:18:02;;;;;;;9.70;4.47;;;4.40;91.10;;;;;;6276755;22;20010;-87
2022/03/21 06:20:28;;;;;;;10.27;4.17;;;4.40;91.40;;;;;;6276140;22;20003;-87
2022/03/21 06:22:54;;;;;;;9.30;4.07;;;4.40;90.80;;;;;;6303881;22;20374;-87
2022/03/21 06:25:20;;;;;;;11.87;4.30;;;4.50;91.00;;;;;;6275653;22;20044;-87
2022/03/21 06:27:46;;;;;;;9.57;3.93;;;4.60;91.30;;;;;;6303665;22;19999;-87
2022/03/21 06:30:12;;;;;;;10.27;4.30;;;4.60;91.10;;;;;;6278552;22;19999;-87
2022/03/21 06:32:38;;;;;;;8.20;3.90;;;4.70;90.60;;;;;;6278802;22;20014;-87
2022/03/21 06:35:04;;;;;;;9.63;3.93;;;4.80;90.80;;;;;;6277120;22;20014;-87
2022/03/21 06:37:31;;;;;;;8.83;4.03;;;4.80;90.60;;;;;;6277858;22;20004;-88
2022/03/21 06:39:57;;;;;;;8.47;3.80;;;4.80;90.20;;;;;;6277373;22;20003;-87
2022/03/21 06:42:23;;;;;;;9.53;3.57;;;4.90;90.60;;;;;;6270735;22;20004;-88
2022/03/21 06:44:50;;;;;;;10.03;4.30;;;5.00;90.20;;;;;;6277257;22;20483;-87
2022/03/21 06:47:17;;;;;;;7.63;3.97;;;5.00;89.30;;;;;;6278834;22;20004;-87
2022/03/21 06:49:43;;;;;;;7.50;3.83;;;4.90;89.70;;;;;;6273083;22;20003;-88
2022/03/21 06:52:08;;;;;;;8.30;4.07;;;5.00;90.10;;;;;;6304981;22;20004;-88
2022/03/21 06:54:35;;;;;;;9.53;4.17;;;4.90;89.10;;;;;;6277485;22;20034;-87
2022/03/21 06:57:02;;;;;;;8.90;3.87;;;5.00;89.80;;;;;;6276586;22;20007;-88
2022/03/21 06:59:29;;;;;;;8.00;3.50;;;5.00;89.20;;;;;;6277887;22;20342;-87
2022/03/21 07:01:58;;;;;;;7.60;3.77;;;5.00;89.40;;;;;;6305420;22;19999;-87
2022/03/21 07:04:25;;;;;;;8.97;3.80;;;5.20;89.80;;;;;;6276949;22;20007;-88
2022/03/21 07:06:51;;;;;;;9.97;4.00;;;5.20;89.90;;;;;;6278033;22;20007;-87
2022/03/21 07:09:17;;;;;;;9.10;4.07;;;5.30;89.50;;;;;;6306087;22;20447;-87
2022/03/21 07:11:43;;;;;;;9.73;3.60;;;5.50;88.70;;;;;;6281197;22;20018;-88
2022/03/21 07:14:09;;;;;;;8.67;4.20;;;5.60;88.80;;;;;;6279548;22;20082;-87
2022/03/21 07:16:34;;;;;;;9.33;4.67;;;5.80;89.50;;;;;;6278779;22;19999;-88
2022/03/21 07:19:00;;;;;;;9.53;4.37;;;6.00;89.10;;;;;;6278419;22;20071;-87
2022/03/21 07:21:26;;;;;;;9.27;4.60;;;6.00;87.70;;;;;;6270662;22;20384;-87
2022/03/21 07:23:55;;;;;;;12.07;4.47;;;6.10;87.60;;;;;;6276854;22;20007;-89
2022/03/21 07:26:21;;;;;;;8.13;4.40;;;6.30;88.90;;;;;;6278307;22;20010;-88
2022/03/21 07:28:47;;;;;;;8.30;4.23;;;6.50;88.30;;;;;;6305635;22;19999;-88
2022/03/21 07:31:13;;;;;;;8.83;3.80;;;6.40;87.10;;;;;;6277947;22;20083;-88
2022/03/21 07:33:44;;;;;;;9.60;4.60;;;6.50;87.50;;;;;;6305189;22;20029;-88
2022/03/21 07:36:10;;;;;;;8.90;4.60;;;6.60;88.30;;;;;;6305266;22;20033;-88
2022/03/21 07:38:37;;;;;;;11.20;4.67;;;6.70;88.90;;;;;;6253330;22;20010;-88
2022/03/21 07:41:08;;;;;;;8.83;3.83;;;6.70;88.30;;;;;;6277559;22;20060;-88
2022/03/21 07:43:37;;;;;;;8.97;4.40;;;6.80;88.20;;;;;;6304947;22;19999;-87
2022/03/21 07:48:53;;;;;;;8.97;3.80;;;7.00;87.90;;;;;;6305454;22;20015;-88
2022/03/21 07:51:19;;;;;;;8.93;4.23;;;7.00;87.70;;;;;;6278504;22;20038;-88
2022/03/21 07:53:48;;;;;;;8.35;4.28;;;6.90;87.30;;;;;;6277600;22;20480;-89
2022/03/21 07:56:14;;;;;;;9.57;4.13;;;7.00;87.30;;;;;;6277392;22;20011;-88
2022/03/21 07:58:46;;;;;;;9.63;3.87;;;7.10;86.40;;;;;;6277097;22;20090;-88
2022/03/21 08:01:15;;;;;;;8.38;4.07;;;7.10;87.20;;;;;;6279404;22;20437;-89
2022/03/21 08:03:53;;;;;;;11.20;4.30;;;7.20;86.40;;;;;;6279050;22;20086;-88
2022/03/21 08:06:21;;;;;;;8.70;4.25;;;7.20;86.60;;;;;;6288637;22;20049;-89
2022/03/21 08:08:49;;;;;;;8.63;4.43;;;7.30;87.20;;;;;;6279249;22;20150;-89
2022/03/21 08:11:39;;;;;;;13.43;4.47;;;7.50;85.90;;;;;;6307294;22;19999;-89
2022/03/21 08:14:11;;;;;;;8.27;4.00;;;7.50;85.90;;;;;;6278925;22;20022;-89
2022/03/21 08:16:38;;;;;;;;;;;7.40;86.40;;;;;;6280833;22;20433;-90
2022/03/21 08:19:12;;;;;;;8.68;4.28;;;7.40;87.30;;;;;;6281054;22;19899;-90
2022/03/21 08:21:45;;;;;;;8.40;4.05;;;7.50;87.10;;;;;;6281590;22;20086;-89
2022/03/21 08:24:19;;;;;;;9.13;4.53;;;7.60;84.40;;;;;;6278954;22;20333;-90
2022/03/21 08:26:44;;;;;;;10.98;4.35;;;7.60;84.30;;;;;;6279378;22;19999;-90
2022/03/21 08:29:10;;;;;;;12.00;5.40;;;7.70;84.80;;;;;;6279727;22;20084;-89
2022/03/21 08:31:36;;;;;;;9.00;4.97;;;7.90;84.50;;;;;;6280340;22;20003;-90
2022/03/21 08:34:05;;;;;;;9.32;4.03;;;8.00;84.90;;;;;;6279775;22;19999;-89
2022/03/21 08:44:24;;;;;;;;;;;;;;;;;;;;;
2022/03/21 08:47:29;;;;;;;9.82;4.30;;;8.70;85.60;;;;;;6301631;22;20029;-91
2022/03/21 08:50:37;;;;;;;8.73;4.15;;;8.60;84.90;;;;;;6233984;22;19996;-90
2022/03/21 08:53:07;;;;;;;11.20;4.70;;;8.60;84.30;;;;;;6279493;22;20327;-88
2022/03/21 08:55:50;;;;;;;8.75;4.22;;;8.70;85.00;;;;;;6277906;22;20045;-88
2022/03/21 08:58:17;;;;;;;8.85;4.65;;;8.80;85.40;;;;;;6299825;22;20357;-89
2022/03/21 09:00:43;;;;;;;8.38;4.55;;;9.00;84.50;;;;;;6326890;22;20003;-90
2022/03/21 09:03:09;;;;;;;8.32;4.45;;;9.20;84.40;;;;;;6325785;22;20101;-90
2022/03/21 09:05:35;;;;;;;9.48;4.50;;;9.30;84.20;;;;;;6327105;22;20011;-90
2022/03/21 09:08:02;;;;;;;8.95;4.90;;;9.50;83.80;;;;;;6306361;22;20418;-90
2022/03/21 09:10:31;;;;;;;11.05;5.28;;;9.50;83.10;;;;;;6296480;22;20010;-90
2022/03/21 09:12:57;;;;;;;8.18;4.60;;;9.60;84.70;;;;;;6295491;22;20011;-88
2022/03/21 09:15:22;;;;;;;10.13;4.70;;;9.80;83.90;;;;;;6296087;22;20098;-90
2022/03/21 09:17:51;;;;;;;10.25;4.60;;;9.90;83.60;;;;;;6293968;22;20030;-89
2022/03/21 09:20:16;;;;;;;10.63;5.15;;;9.90;83.00;;;;;;6296484;22;20041;-89
2022/03/21 09:22:42;;;;;;;9.20;4.80;;;10.00;82.40;;;;;;6298725;22;20007;-89
2022/03/21 09:25:09;;;;;;;9.57;4.72;;;10.10;82.00;;;;;;6293910;22;20023;-89
2022/03/21 09:27:44;;;;;;;8.30;4.43;;;10.20;82.40;;;;;;6294381;22;20003;-90
2022/03/21 09:30:11;;;;;;;9.82;4.82;;;10.30;81.70;;;;;;6292252;22;19999;-89
2022/03/21 09:32:38;;;;;;;10.20;5.03;;;10.50;81.80;;;;;;6292703;22;20145;-89
2022/03/21 09:35:13;;;;;;;10.10;4.95;;;10.60;80.70;;;;;;6293019;22;19999;-90
2022/03/21 09:37:42;;;;;;;8.77;4.80;;;10.70;80.70;;;;;;6293141;22;20063;-90
2022/03/21 09:40:10;;;;;;;9.10;4.63;;;10.60;80.50;;;;;;6293911;22;19999;-90
2022/03/21 09:43:19;;;;;;;9.40;4.28;;;10.60;79.60;;;;;;6272556;22;20018;-89
2022/03/21 09:45:57;;;;;;;10.38;5.10;;;10.90;80.90;;;;;;6279824;22;20038;-90
2022/03/21 09:48:37;;;;;;;10.15;5.65;;;11.10;79.20;;;;;;6302693;22;20022;-89
2022/03/21 09:51:15;;;;;;;8.45;5.28;;;11.10;79.50;;;;;;6327580;22;20006;-89
2022/03/21 09:53:52;;;;;;;9.85;5.28;;;11.20;79.00;;;;;;6302217;22;20041;-90
2022/03/21 09:57:04;;;;;;;8.88;5.22;;;11.40;78.70;;;;;;6302671;22;20100;-89
2022/03/21 09:59:40;;;;;;;7.93;4.82;;;11.60;79.50;;;;;;6271886;22;20048;-89
2022/03/21 10:02:18;;;;;;;8.68;4.50;;;11.70;77.90;;;;;;6273180;22;20010;-90
2022/03/21 10:04:54;;;;;;;10.38;5.10;;;11.70;79.10;;;;;;6320221;22;20018;-89
2022/03/21 10:07:25;;;;;;;11.90;5.32;;;11.80;79.60;;;;;;6291914;22;20030;-89
2022/03/21 10:10:20;;;;;;;10.15;5.15;;;12.00;79.90;;;;;;6318854;22;20460;-89
2022/03/21 10:12:52;;;;;;;10.68;5.40;;;12.10;78.50;;;;;;6281968;22;20030;-90
2022/03/21 10:15:30;;;;;;;9.55;4.65;;;12.20;78.20;;;;;;6290731;22;20079;-90
2022/03/21 10:18:12;;;;;;;10.00;5.30;;;12.40;77.70;;;;;;6296519;22;20063;-89
2022/03/21 10:21:11;;;;;;;9.15;4.65;;;12.60;78.90;;;;;;6299365;22;20019;-90
2022/03/21 10:24:19;;;;;;;11.10;4.78;;;12.40;77.80;;;;;;6303355;22;20341;-90
2022/03/21 10:27:36;;;;;;;12.13;5.30;;;12.70;77.70;;;;;;6331379;22;20460;-90
2022/03/21 10:30:35;;;;;;;10.73;4.88;;;13.00;76.60;;;;;;6306347;22;19995;-90
2022/03/21 10:33:24;;;;;;;13.43;5.28;;;13.40;78.50;;;;;;6306284;22;19998;-90
2022/03/21 10:35:57;;;;;;;9.20;4.80;;;13.50;75.40;;;;;;6285134;22;20032;-91
2022/03/21 10:38:39;;;;;;;10.55;5.25;;;13.70;75.80;;;;;;6303609;22;19999;-89
2022/03/21 10:41:12;;;;;;;9.82;5.75;;;13.80;74.30;;;;;;6299882;22;20011;-90
2022/03/21 10:43:54;;;;;;;12.20;5.93;;;13.80;74.80;;;;;;6293055;22;20070;-90
2022/03/21 10:46:22;;;;;;;8.77;5.03;;;13.90;75.10;;;;;;6270827;22;20013;-90
2022/03/21 10:49:01;;;;;;;10.70;5.03;;;14.10;73.60;;;;;;6293805;22;20003;-89
2022/03/21 10:51:47;;;;;;;11.15;4.95;;;14.10;72.20;;;;;;6294464;22;20003;-90
2022/03/21 10:54:50;;;;;;;11.02;5.57;;;14.20;73.70;;;;;;6293691;22;19999;-89
2022/03/21 10:57:31;;;;;;;10.25;5.78;;;14.20;74.20;;;;;;6292539;22;20007;-90
2022/03/21 11:00:20;;;;;;;9.82;5.20;;;14.30;73.40;;;;;;6294723;22;20027;-90
2022/03/21 11:03:01;;;;;;;9.90;5.30;;;14.20;72.40;;;;;;6322038;22;20018;-90
2022/03/21 11:05:30;;;;;;;9.00;5.07;;;14.20;71.90;;;;;;6301751;22;20037;-91
2022/03/21 11:08:08;;;;;;;9.25;5.25;;;14.10;70.40;;;;;;6269064;22;20097;-90
2022/03/21 11:10:51;;;;;;;9.85;5.25;;;14.30;71.60;;;;;;6300647;22;19988;-88
2022/03/21 11:13:20;;;;;;;11.07;5.85;;;14.40;70.50;;;;;;6293081;22;20053;-90
2022/03/21 11:16:05;;;;;;;10.20;5.18;;;14.50;72.00;;;;;;6293504;22;20067;-89
2022/03/21 11:18:33;;;;;;;11.63;5.25;;;14.40;70.40;;;;;;6297472;22;19999;-89
2022/03/21 11:21:02;;;;;;;9.43;5.43;;;14.40;70.40;;;;;;6287916;22;20007;-90
2022/03/21 11:23:31;;;;;;;10.70;5.93;;;14.40;68.90;;;;;;6292751;22;20056;-89
2022/03/21 11:26:41;;;;;;;11.15;5.35;;;14.50;70.00;;;;;;6293912;22;20173;-90
2022/03/21 11:29:54;;;;;;;11.75;5.47;;;14.50;68.60;;;;;;6290077;22;19999;-90
2022/03/21 11:32:57;;;;;;;9.23;5.00;;;14.60;70.00;;;;;;6264110;22;20011;-90
2022/03/21 11:35:30;;;;;;;9.85;5.10;;;14.70;68.50;;;;;;6292362;22;20022;-90
2022/03/21 11:38:27;;;;;;;10.07;5.43;;;14.90;68.50;;;;;;6293152;22;20007;-90
2022/03/21 11:41:13;;;;;;;11.40;5.78;;;15.10;68.80;;;;;;6283057;22;20023;-90
2022/03/21 11:43:40;;;;;;;13.23;5.75;;;15.00;68.10;;;;;;6292456;22;20033;-90
2022/03/21 11:46:29;;;;;;;11.00;5.65;;;15.00;68.70;;;;;;6290649;22;20010;-90
2022/03/21 11:49:03;;;;;;;10.85;6.03;;;15.10;67.60;;;;;;6290529;22;20007;-90
2022/03/21 11:51:38;;;;;;;10.00;5.18;;;15.30;66.70;;;;;;6288834;22;20011;-89
2022/03/21 11:54:36;;;;;;;11.13;5.18;;;15.40;67.70;;;;;;6289579;22;20088;-89
2022/03/21 11:57:08;;;;;;;12.25;5.32;;;15.70;67.50;;;;;;6277269;22;20007;-89
2022/03/21 11:59:36;;;;;;;9.77;5.45;;;15.70;67.50;;;;;;6317830;22;19999;-90
2022/03/21 12:02:08;;;;;;;10.75;5.72;;;15.70;66.10;;;;;;6292553;22;20003;-89
2022/03/21 12:04:35;;;;;;;10.32;5.63;;;16.00;66.60;;;;;;6318364;22;20057;-92
2022/03/21 12:07:20;;;;;;;9.68;5.70;;;16.10;66.30;;;;;;6290690;22;20334;-89
2022/03/21 12:09:50;;;;;;;9.20;4.70;;;16.20;65.00;;;;;;6289373;22;20108;-89
2022/03/21 12:12:20;;;;;;;10.70;5.55;;;16.20;63.70;;;;;;6290864;22;20007;-90
2022/03/21 12:14:54;;;;;;;10.60;6.07;;;16.20;65.50;;;;;;6289259;22;20029;-90
2022/03/21 12:17:23;;;;;;;8.18;5.10;;;16.30;63.80;;;;;;6283553;22;20003;-90
2022/03/21 12:19:55;;;;;;;11.02;5.75;;;16.40;64.50;;;;;;6287445;22;20084;-89
2022/03/21 12:22:30;;;;;;;10.20;5.05;;;16.30;63.80;;;;;;6311115;22;20050;-89
2022/03/21 12:25:13;;;;;;;10.38;5.55;;;16.20;63.70;;;;;;6285060;22;20003;-89
2022/03/21 12:27:43;;;;;;;8.98;5.05;;;16.30;63.50;;;;;;6282803;22;20442;-89
2022/03/21 12:30:22;;;;;;;9.32;4.72;;;16.30;62.40;;;;;;6286939;22;20007;-89
2022/03/21 12:33:00;;;;;;;10.38;5.53;;;16.20;62.50;;;;;;6283525;22;20460;-87
2022/03/21 12:35:32;;;;;;;9.25;4.63;;;16.10;63.20;;;;;;6280277;22;20098;-86
2022/03/21 12:38:17;;;;;;;9.10;4.78;;;16.10;63.50;;;;;;6307638;22;20034;-87
2022/03/21 12:40:53;;;;;;;11.18;5.22;;;16.20;63.40;;;;;;6308833;22;20004;-87
2022/03/21 12:43:27;;;;;;;10.63;5.68;;;16.10;63.30;;;;;;6280244;22;20011;-87
2022/03/21 12:46:04;;;;;;;12.52;4.68;;;16.20;63.00;;;;;;6308547;22;20006;-86
2022/03/21 12:48:31;;;;;;;9.68;4.93;;;16.30;61.90;;;;;;6282813;22;19999;-87
2022/03/21 12:50:57;;;;;;;9.10;5.03;;;16.40;63.70;;;;;;6282506;22;20342;-87
2022/03/21 12:53:23;;;;;;;10.63;5.15;;;16.40;60.70;;;;;;6307891;22;19997;-87
2022/03/21 12:56:03;;;;;;;7.65;4.50;;;16.50;62.40;;;;;;6282787;22;20384;-87
2022/03/21 12:58:29;;;;;;;10.95;4.70;;;16.50;60.80;;;;;;6282470;22;20014;-86
2022/03/21 13:01:00;;;;;;;9.07;4.90;;;16.50;60.10;;;;;;6282839;22;20003;-86
2022/03/21 13:03:30;;;;;;;9.32;4.78;;;16.60;60.80;;;;;;6281890;22;20559;-86
2022/03/21 13:11:40;;;;;;;10.45;4.40;;;16.60;60.70;;;;;;6319883;22;20037;-87
2022/03/21 13:14:17;;;;;;;9.88;4.68;;;16.80;60.20;;;;;;6308391;22;20000;-86
2022/03/21 13:17:01;;;;;;;8.07;4.60;;;17.10;60.50;;;;;;6282550;22;20074;-87
2022/03/21 13:19:29;;;;;;;13.93;5.32;;;17.20;59.80;;;;;;6282541;22;20002;-87
2022/03/21 13:22:07;;;;;;;10.57;4.95;;;17.20;60.20;;;;;;6307541;22;20039;-86
2022/03/21 13:24:39;;;;;;;8.80;4.85;;;17.20;61.70;;;;;;6307428;22;20120;-86
2022/03/21 13:27:07;;;;;;;9.13;5.15;;;17.10;59.50;;;;;;6282999;22;20003;-86
2022/03/21 13:29:33;;;;;;;8.23;4.28;;;16.90;60.50;;;;;;6283804;22;20098;-87
2022/03/21 13:31:59;;;;;;;8.35;4.18;;;16.80;60.60;;;;;;6282741;22;20043;-87
2022/03/21 13:34:25;;;;;;;8.25;4.63;;;16.70;60.20;;;;;;6282169;22;20003;-86
2022/03/21 13:36:51;;;;;;;8.82;4.50;;;16.90;60.80;;;;;;6280849;22;20003;-86
2022/03/21 13:39:22;;;;;;;7.18;4.10;;;17.00;61.70;;;;;;6282736;22;20068;-86
2022/03/21 13:41:56;;;;;;;8.27;3.78;;;16.90;60.60;;;;;;6283267;22;20007;-86
2022/03/21 13:44:48;;;;;;;9.68;5.38;;;17.00;60.20;;;;;;6276554;22;20392;-87
2022/03/21 13:47:15;;;;;;;7.22;3.75;;;17.10;59.70;;;;;;6277970;22;20023;-86
2022/03/21 13:49:53;;;;;;;8.43;4.30;;;16.90;59.10;;;;;;6287045;22;20003;-91
2022/03/21 13:52:48;;;;;;;7.13;3.88;;;17.10;58.40;;;;;;6317181;22;20028;-90
2022/03/21 13:55:27;;;;;;;8.98;3.97;;;17.30;58.00;;;;;;6289992;22;20003;-90
2022/03/21 13:58:05;;;;;;;8.63;3.88;;;17.20;59.40;;;;;;6289925;22;20031;-89
2022/03/21 14:00:43;;;;;;;8.15;3.60;;;17.00;58.70;;;;;;6287086;22;19995;-89
2022/03/21 14:03:10;;;;;;;7.00;3.97;;;17.00;58.70;;;;;;6314991;22;20003;-89